createdAt,value
2022-07-28T00:01:06.265Z,79.80
2022-07-28T00:03:33.299Z,80.10
2022-07-28T00:06:00.419Z,80.40
2022-07-28T00:08:27.412Z,80.50
2022-07-28T00:10:54.464Z,80.30
2022-07-28T00:13:22.444Z,80.00
2022-07-28T00:15:49.463Z,79.80
2022-07-28T00:18:16.503Z,79.70
2022-07-28T00:20:43.548Z,79.70
2022-07-28T00:23:10.592Z,79.70
2022-07-28T00:25:37.624Z,79.70
2022-07-28T00:28:04.830Z,79.90
2022-07-28T00:30:31.857Z,80.00
2022-07-28T00:32:59.112Z,80.10
2022-07-28T00:35:30.926Z,80.20
2022-07-28T00:38:00.052Z,80.10
2022-07-28T00:40:47.308Z,80.20
2022-07-28T00:43:14.869Z,80.30
2022-07-28T00:45:42.117Z,80.40
2022-07-28T00:48:09.422Z,80.50
2022-07-28T00:50:40.286Z,80.50
2022-07-28T00:53:08.864Z,80.50
2022-07-28T00:56:05.594Z,80.40
2022-07-28T00:58:27.448Z,80.40
2022-07-28T01:00:55.687Z,80.50
2022-07-28T01:03:23.872Z,80.30
2022-07-28T01:06:12.856Z,80.20
2022-07-28T01:08:51.791Z,80.00
2022-07-28T01:11:30.122Z,79.90
2022-07-28T01:14:16.345Z,79.90
2022-07-28T01:16:49.838Z,80.00
2022-07-28T01:19:48.492Z,80.00
2022-07-28T01:22:23.052Z,80.00
2022-07-28T01:25:16.578Z,79.90
2022-07-28T01:28:08.228Z,79.80
2022-07-28T01:30:48.773Z,79.70
2022-07-28T01:33:25.006Z,79.70
2022-07-28T01:36:01.971Z,79.70
2022-07-28T01:38:31.936Z,79.70
2022-07-28T01:41:01.254Z,79.70
2022-07-28T01:43:31.684Z,79.80
2022-07-28T01:46:00.014Z,80.10
2022-07-28T01:48:28.834Z,80.40
2022-07-28T01:50:57.386Z,80.60
2022-07-28T01:53:26.177Z,80.70
2022-07-28T01:55:54.668Z,80.80
2022-07-28T01:58:24.984Z,80.90
2022-07-28T02:00:55.087Z,80.80
2022-07-28T02:03:24.327Z,80.80
2022-07-28T02:05:54.069Z,80.90
2022-07-28T02:08:23.555Z,81.10
2022-07-28T02:11:12.666Z,81.20
2022-07-28T02:13:42.305Z,81.40
2022-07-28T02:16:11.391Z,81.50
2022-07-28T02:18:40.037Z,81.50
2022-07-28T02:21:08.147Z,81.50
2022-07-28T02:23:35.857Z,81.60
2022-07-28T02:26:08.410Z,81.60
2022-07-28T02:28:36.385Z,81.80
2022-07-28T02:31:10.955Z,81.90
2022-07-28T02:34:00.077Z,82.10
2022-07-28T02:36:41.540Z,82.10
2022-07-28T02:39:17.163Z,82.20
2022-07-28T02:41:44.730Z,82.30
2022-07-28T02:44:25.770Z,82.20
2022-07-28T02:46:55.872Z,82.30
2022-07-28T02:49:33.861Z,82.30
2022-07-28T02:52:03.476Z,82.40
2022-07-28T02:54:32.968Z,82.50
2022-07-28T02:57:00.992Z,82.50
2022-07-28T02:59:29.265Z,82.50
2022-07-28T03:01:57.258Z,82.40
2022-07-28T03:04:43.704Z,82.30
2022-07-28T03:07:11.364Z,82.30
2022-07-28T03:09:45.802Z,82.30
2022-07-28T03:12:13.327Z,82.50
2022-07-28T03:14:40.586Z,82.60
2022-07-28T03:17:08.275Z,82.70
2022-07-28T03:19:35.430Z,82.70
2022-07-28T03:22:02.643Z,82.70
2022-07-28T03:24:43.399Z,82.60
2022-07-28T03:27:31.175Z,82.80
2022-07-28T03:30:04.057Z,82.80
2022-07-28T03:32:34.284Z,83.00
2022-07-28T03:35:01.636Z,83.00
2022-07-28T03:38:10.227Z,83.00
2022-07-28T03:40:38.818Z,83.10
2022-07-28T03:43:08.794Z,82.90
2022-07-28T03:45:36.428Z,82.60
2022-07-28T03:48:08.352Z,82.40
2022-07-28T03:50:35.446Z,82.50
2022-07-28T03:53:05.254Z,82.60
2022-07-28T03:55:32.270Z,82.70
2022-07-28T03:57:59.419Z,82.90
2022-07-28T04:00:26.412Z,82.80
2022-07-28T04:02:53.633Z,82.80
2022-07-28T04:05:20.935Z,82.90
2022-07-28T04:07:48.259Z,83.20
2022-07-28T04:10:17.356Z,83.40
2022-07-28T04:12:53.606Z,83.60
2022-07-28T04:15:22.018Z,83.70
2022-07-28T04:17:50.124Z,83.70
2022-07-28T04:20:18.677Z,83.70
2022-07-28T04:22:47.172Z,83.80
2022-07-28T04:25:15.790Z,83.80
2022-07-28T04:27:44.607Z,84.00
2022-07-28T04:30:17.506Z,84.20
2022-07-28T04:32:46.165Z,84.40
2022-07-28T04:35:17.355Z,84.50
2022-07-28T04:37:45.966Z,84.40
2022-07-28T04:40:13.847Z,84.30
2022-07-28T04:42:41.762Z,84.10
2022-07-28T04:45:11.721Z,84.20
2022-07-28T04:47:39.914Z,84.20
2022-07-28T04:50:09.823Z,83.90
2022-07-28T04:52:38.354Z,83.90
2022-07-28T04:55:06.832Z,84.00
2022-07-28T04:57:34.285Z,83.90
2022-07-28T05:00:01.753Z,83.80
2022-07-28T05:02:28.904Z,83.70
2022-07-28T05:04:56.262Z,83.50
2022-07-28T05:07:23.365Z,83.30
2022-07-28T05:09:50.450Z,83.10
2022-07-28T05:12:17.445Z,83.00
2022-07-28T05:14:44.429Z,82.90
2022-07-28T05:17:11.674Z,82.80
2022-07-28T05:19:40.718Z,82.60
2022-07-28T05:22:07.784Z,82.20
2022-07-28T05:24:34.799Z,81.80
2022-07-28T05:27:01.943Z,81.10
2022-07-28T05:29:40.469Z,81.00
2022-07-28T05:32:17.140Z,80.40
2022-07-28T05:34:48.047Z,78.90
2022-07-28T05:37:15.068Z,78.30
2022-07-28T05:39:42.294Z,77.30
2022-07-28T05:42:09.288Z,76.70
2022-07-28T05:44:38.497Z,75.80
2022-07-28T05:47:06.547Z,74.90
2022-07-28T05:49:33.871Z,71.80
2022-07-28T05:52:01.208Z,70.50
2022-07-28T05:54:28.435Z,70.30
2022-07-28T05:56:55.445Z,70.00
2022-07-28T05:59:22.497Z,68.50
2022-07-28T06:01:49.592Z,68.30
2022-07-28T06:04:32.365Z,68.30
2022-07-28T06:06:59.626Z,68.80
2022-07-28T06:09:26.668Z,68.30
2022-07-28T06:11:53.645Z,68.20
2022-07-28T06:14:20.733Z,68.30
2022-07-28T06:16:51.269Z,68.00
2022-07-28T06:19:19.252Z,68.70
2022-07-28T06:21:47.677Z,69.00
2022-07-28T06:24:15.322Z,68.60
2022-07-28T06:26:44.883Z,69.10
2022-07-28T06:29:12.514Z,69.30
2022-07-28T06:31:40.189Z,69.50
2022-07-28T06:34:07.580Z,69.00
2022-07-28T06:36:34.579Z,67.40
2022-07-28T06:39:02.260Z,66.80
2022-07-28T06:41:29.445Z,66.20
2022-07-28T06:43:56.525Z,66.30
2022-07-28T06:46:23.694Z,66.40
2022-07-28T06:48:50.944Z,65.60
2022-07-28T06:51:20.046Z,65.20
2022-07-28T06:53:48.750Z,64.00
2022-07-28T06:56:17.032Z,64.50
2022-07-28T06:58:47.126Z,64.90
2022-07-28T07:01:15.632Z,64.90
2022-07-28T07:03:43.694Z,65.00
2022-07-28T07:06:11.103Z,63.60
2022-07-28T07:08:38.657Z,62.70
2022-07-28T07:11:06.009Z,63.10
2022-07-28T07:13:33.355Z,63.10
2022-07-28T07:16:00.836Z,62.20
2022-07-28T07:18:27.954Z,62.70
2022-07-28T07:20:57.639Z,62.90
2022-07-28T07:23:24.850Z,62.20
2022-07-28T07:25:51.922Z,61.90
2022-07-28T07:28:18.918Z,61.90
2022-07-28T07:30:45.984Z,61.50
2022-07-28T07:33:13.049Z,61.20
2022-07-28T07:35:40.118Z,60.80
2022-07-28T07:38:07.250Z,60.50
2022-07-28T07:40:34.302Z,59.70
2022-07-28T07:43:01.454Z,59.00
2022-07-28T07:45:28.467Z,59.20
2022-07-28T07:47:55.504Z,59.50
2022-07-28T07:50:22.624Z,58.60
2022-07-28T07:52:52.361Z,58.20
2022-07-28T07:55:19.487Z,57.80
2022-07-28T07:57:46.592Z,57.70
2022-07-28T08:00:28.920Z,57.80
2022-07-28T08:02:58.092Z,57.70
2022-07-28T08:05:35.488Z,58.40
2022-07-28T08:08:05.237Z,58.00
2022-07-28T08:10:33.918Z,58.00
2022-07-28T08:13:01.243Z,56.50
2022-07-28T08:15:28.374Z,56.10
2022-07-28T08:17:55.452Z,55.80
2022-07-28T08:20:22.839Z,56.50
2022-07-28T08:22:52.031Z,56.40
2022-07-28T08:25:20.082Z,55.30
2022-07-28T08:27:47.432Z,56.10
2022-07-28T08:30:15.331Z,55.90
2022-07-28T08:32:47.067Z,56.40
2022-07-28T08:35:40.395Z,57.00
2022-07-28T08:38:08.031Z,56.80
2022-07-28T08:40:38.233Z,55.80
2022-07-28T08:43:34.375Z,55.60
2022-07-28T08:46:04.267Z,55.50
2022-07-28T08:48:33.195Z,54.90
2022-07-28T08:51:04.373Z,55.10
2022-07-28T08:53:32.836Z,55.40
2022-07-28T08:56:05.578Z,55.30
2022-07-28T08:58:34.204Z,53.40
2022-07-28T09:01:01.838Z,51.90
2022-07-28T09:03:29.948Z,51.20
2022-07-28T09:05:57.980Z,50.70
2022-07-28T09:08:25.933Z,49.50
2022-07-28T09:10:53.303Z,48.70
2022-07-28T09:13:20.416Z,49.30
2022-07-28T09:15:48.608Z,48.80
2022-07-28T09:18:17.431Z,47.60
2022-07-28T09:20:45.277Z,46.50
2022-07-28T09:23:42.105Z,47.40
2022-07-28T09:26:11.749Z,47.10
2022-07-28T09:28:58.370Z,47.80
2022-07-28T09:31:27.581Z,49.30
2022-07-28T09:33:57.926Z,49.30
2022-07-28T09:36:25.049Z,50.30
2022-07-28T09:38:52.625Z,50.10
2022-07-28T09:41:21.960Z,49.20
2022-07-28T09:43:54.910Z,48.40
2022-07-28T09:46:24.831Z,48.60
2022-07-28T09:48:52.458Z,48.00
2022-07-28T09:51:26.301Z,47.10
2022-07-28T09:54:05.687Z,47.40
2022-07-28T09:56:32.887Z,47.20
2022-07-28T09:59:00.683Z,46.30
2022-07-28T10:01:35.812Z,46.70
2022-07-28T10:04:04.613Z,47.00
2022-07-28T10:06:33.632Z,48.70
2022-07-28T10:09:02.762Z,47.40
2022-07-28T10:11:30.715Z,48.00
2022-07-28T10:14:06.389Z,47.00
2022-07-28T10:16:42.685Z,46.80
2022-07-28T10:19:10.183Z,47.80
2022-07-28T10:21:44.395Z,47.00
2022-07-28T10:24:20.142Z,46.70
2022-07-28T10:26:48.250Z,47.60
2022-07-28T10:29:21.742Z,47.50
2022-07-28T10:31:54.974Z,47.20
2022-07-28T10:34:42.127Z,47.60
2022-07-28T10:37:13.170Z,47.10
2022-07-28T10:39:58.275Z,47.10
2022-07-28T10:42:25.712Z,46.30
2022-07-28T10:44:54.331Z,47.00
2022-07-28T10:47:23.576Z,47.50
2022-07-28T10:49:51.590Z,46.20
2022-07-28T10:52:45.641Z,46.20
2022-07-28T10:55:44.419Z,47.10
2022-07-28T10:58:24.999Z,46.20
2022-07-28T11:00:57.915Z,46.20
2022-07-28T11:03:43.842Z,46.80
2022-07-28T11:06:28.516Z,47.00
2022-07-28T11:08:57.650Z,47.10
2022-07-28T11:11:50.095Z,47.20
2022-07-28T11:14:24.458Z,47.30
2022-07-28T11:17:00.891Z,46.40
2022-07-28T11:20:07.119Z,48.00
2022-07-28T11:22:33.233Z,47.10
2022-07-28T11:25:19.209Z,47.60
2022-07-28T11:27:50.599Z,45.70
2022-07-28T11:30:32.943Z,46.50
2022-07-28T11:33:01.217Z,47.10
2022-07-28T11:35:30.267Z,45.40
2022-07-28T11:38:03.861Z,45.80
2022-07-28T11:40:34.610Z,44.80
2022-07-28T11:43:36.920Z,45.00
2022-07-28T11:46:10.124Z,45.70
2022-07-28T11:48:40.510Z,45.80
2022-07-28T11:51:07.627Z,45.30
2022-07-28T11:53:45.553Z,46.10
2022-07-28T11:56:29.228Z,46.20
2022-07-28T11:59:01.449Z,46.40
2022-07-28T12:01:32.043Z,47.30
2022-07-28T12:04:00.306Z,46.00
2022-07-28T12:06:35.879Z,46.00
2022-07-28T12:09:06.521Z,45.60
2022-07-28T12:11:35.707Z,45.90
2022-07-28T12:14:17.192Z,45.60
2022-07-28T12:16:49.654Z,44.30
2022-07-28T12:19:20.817Z,44.40
2022-07-28T12:21:51.794Z,45.00
2022-07-28T12:24:30.591Z,45.30
2022-07-28T12:27:00.394Z,44.10
2022-07-28T12:29:32.184Z,43.90
2022-07-28T12:32:04.980Z,44.20
2022-07-28T12:34:35.101Z,45.00
2022-07-28T12:37:04.613Z,46.70
2022-07-28T12:39:36.895Z,46.20
2022-07-28T12:42:05.723Z,46.20
2022-07-28T12:44:38.057Z,45.60
2022-07-28T12:47:07.864Z,44.70
2022-07-28T12:49:36.290Z,45.20
2022-07-28T12:52:24.424Z,45.30
2022-07-28T12:54:54.629Z,45.20
2022-07-28T12:57:48.743Z,45.40
2022-07-28T13:00:19.963Z,46.20
2022-07-28T13:02:48.945Z,46.60
2022-07-28T13:05:33.116Z,46.20
2022-07-28T13:08:05.695Z,46.90
2022-07-28T13:10:33.417Z,46.30
2022-07-28T13:13:06.935Z,45.90
2022-07-28T13:15:33.997Z,46.20
2022-07-28T13:18:01.353Z,47.10
2022-07-28T13:20:28.729Z,47.10
2022-07-28T13:22:57.486Z,47.30
2022-07-28T13:25:24.763Z,47.30
2022-07-28T13:27:55.455Z,47.80
2022-07-28T13:30:23.864Z,47.50
2022-07-28T13:32:51.192Z,47.00
2022-07-28T13:35:19.143Z,47.50
2022-07-28T13:37:48.904Z,48.20
2022-07-28T13:40:16.026Z,48.30
2022-07-28T13:42:53.414Z,48.70
2022-07-28T13:45:24.478Z,48.70
2022-07-28T13:47:52.391Z,49.20
2022-07-28T13:50:21.021Z,49.60
2022-07-28T13:52:48.593Z,49.20
2022-07-28T13:55:20.504Z,49.10
2022-07-28T13:57:50.515Z,48.70
2022-07-28T14:00:19.531Z,48.80
2022-07-28T14:02:50.190Z,48.70
2022-07-28T14:05:17.378Z,49.00
2022-07-28T14:07:48.443Z,49.10
2022-07-28T14:10:17.888Z,49.10
2022-07-28T14:12:46.211Z,49.50
2022-07-28T14:15:14.056Z,49.80
2022-07-28T14:17:43.414Z,49.90
2022-07-28T14:20:14.260Z,49.90
2022-07-28T14:22:42.646Z,49.80
2022-07-28T14:25:10.339Z,50.00
2022-07-28T14:27:37.634Z,50.10
2022-07-28T14:30:05.700Z,50.20
2022-07-28T14:32:33.115Z,49.90
2022-07-28T14:35:01.963Z,49.70
2022-07-28T14:37:36.208Z,49.00
2022-07-28T14:40:08.707Z,48.60
2022-07-28T14:42:35.895Z,48.10
2022-07-28T14:45:05.528Z,47.70
2022-07-28T14:47:44.720Z,47.50
2022-07-28T14:50:13.360Z,47.60
2022-07-28T14:52:40.674Z,48.10
2022-07-28T14:55:12.438Z,47.40
2022-07-28T14:57:51.812Z,47.10
2022-07-28T15:00:22.776Z,46.90
2022-07-28T15:02:51.694Z,47.00
2022-07-28T15:05:19.989Z,47.00
2022-07-28T15:07:49.470Z,46.70
2022-07-28T15:10:16.675Z,47.10
2022-07-28T15:12:44.660Z,47.10
2022-07-28T15:15:12.913Z,47.10
2022-07-28T15:17:40.103Z,46.30
2022-07-28T15:20:08.680Z,46.30
2022-07-28T15:22:35.732Z,46.30
2022-07-28T15:25:04.112Z,46.40
2022-07-28T15:27:33.659Z,45.30
2022-07-28T15:30:02.914Z,45.00
2022-07-28T15:32:31.302Z,44.30
2022-07-28T15:34:59.278Z,44.80
2022-07-28T15:37:28.088Z,44.80
2022-07-28T15:39:55.181Z,45.10
2022-07-28T15:42:22.324Z,45.00
2022-07-28T15:44:49.445Z,44.70
2022-07-28T15:47:16.698Z,44.70
2022-07-28T15:49:43.770Z,44.50
2022-07-28T15:52:11.128Z,44.70
2022-07-28T15:54:38.277Z,44.90
2022-07-28T15:57:05.340Z,44.80
2022-07-28T15:59:49.623Z,44.50
2022-07-28T16:02:18.669Z,44.70
2022-07-28T16:04:47.211Z,44.50
2022-07-28T16:07:23.427Z,44.40
2022-07-28T16:09:52.144Z,44.10
2022-07-28T16:12:19.402Z,44.70
2022-07-28T16:14:46.593Z,44.80
2022-07-28T16:17:13.647Z,44.40
2022-07-28T16:19:49.975Z,44.50
2022-07-28T16:22:18.947Z,44.70
2022-07-28T16:24:46.657Z,45.00
2022-07-28T16:27:14.680Z,45.10
2022-07-28T16:29:42.055Z,44.90
2022-07-28T16:32:09.232Z,45.00
2022-07-28T16:34:36.269Z,45.00
2022-07-28T16:37:05.058Z,45.60
2022-07-28T16:39:34.454Z,45.50
2022-07-28T16:42:02.877Z,44.90
2022-07-28T16:44:30.701Z,44.90
2022-07-28T16:46:58.269Z,45.20
2022-07-28T16:49:25.598Z,45.40
2022-07-28T16:51:52.939Z,45.20
2022-07-28T16:54:20.539Z,45.20
2022-07-28T16:56:48.272Z,45.20
2022-07-28T16:59:15.338Z,45.40
2022-07-28T17:01:46.297Z,45.30
2022-07-28T17:04:15.520Z,45.40
2022-07-28T17:06:42.929Z,45.70
2022-07-28T17:09:10.882Z,45.80
2022-07-28T17:11:38.138Z,45.80
2022-07-28T17:16:46.303Z,45.70
2022-07-28T17:19:13.310Z,45.60
2022-07-28T17:21:40.361Z,45.90
2022-07-28T17:24:08.435Z,46.00
2022-07-28T17:29:23.018Z,46.00
2022-07-28T17:31:50.251Z,45.90
2022-07-28T17:34:17.992Z,46.20
2022-07-28T17:36:45.746Z,47.00
2022-07-28T17:39:13.190Z,47.30
2022-07-28T17:41:40.323Z,47.30
2022-07-28T17:44:07.338Z,46.80
2022-07-28T17:46:35.142Z,46.40
2022-07-28T17:49:03.404Z,46.00
2022-07-28T17:51:30.850Z,46.60
2022-07-28T17:53:58.066Z,46.70
2022-07-28T17:56:25.395Z,46.80
2022-07-28T17:58:53.168Z,47.10
2022-07-28T18:01:20.271Z,47.30
2022-07-28T18:03:56.870Z,47.20
2022-07-28T18:06:32.511Z,47.10
2022-07-28T18:09:05.404Z,47.20
2022-07-28T18:11:57.022Z,47.50
2022-07-28T18:14:27.256Z,48.30
2022-07-28T18:16:54.709Z,48.10
2022-07-28T18:19:22.060Z,48.20
2022-07-28T18:21:49.569Z,48.70
2022-07-28T18:24:17.267Z,48.90
2022-07-28T18:26:44.574Z,49.10
2022-07-28T18:29:11.745Z,49.20
2022-07-28T18:31:45.462Z,49.20
2022-07-28T18:34:14.277Z,49.10
2022-07-28T18:36:41.590Z,49.00
2022-07-28T18:39:08.683Z,49.50
2022-07-28T18:41:46.711Z,49.80
2022-07-28T18:44:16.998Z,50.20
2022-07-28T18:46:44.728Z,50.70
2022-07-28T18:49:12.232Z,51.00
2022-07-28T18:51:39.396Z,51.30
2022-07-28T18:54:11.851Z,51.50
2022-07-28T18:56:38.960Z,52.00
2022-07-28T18:59:05.950Z,52.30
2022-07-28T19:01:33.124Z,52.50
2022-07-28T19:04:00.548Z,53.00
2022-07-28T19:06:29.191Z,53.50
2022-07-28T19:08:56.350Z,54.10
2022-07-28T19:11:23.330Z,54.40
2022-07-28T19:13:50.447Z,54.40
2022-07-28T19:16:18.962Z,55.00
2022-07-28T19:18:46.152Z,55.00
2022-07-28T19:21:13.704Z,55.00
2022-07-28T19:23:40.888Z,54.90
2022-07-28T19:26:08.026Z,55.10
2022-07-28T19:28:36.145Z,55.20
2022-07-28T19:31:10.159Z,55.90
2022-07-28T19:33:40.185Z,56.20
2022-07-28T19:36:11.794Z,56.40
2022-07-28T19:38:38.915Z,56.40
2022-07-28T19:41:05.974Z,56.60
2022-07-28T19:43:35.107Z,57.10
2022-07-28T19:46:02.805Z,58.40
2022-07-28T19:48:29.968Z,58.50
2022-07-28T19:50:57.126Z,58.30
2022-07-28T19:53:25.334Z,58.10
2022-07-28T19:55:59.528Z,57.90
2022-07-28T19:58:26.761Z,58.10
2022-07-28T20:00:56.277Z,58.40
2022-07-28T20:04:02.149Z,58.50
2022-07-28T20:06:11.764Z,58.60
2022-07-28T20:08:39.356Z,59.30
2022-07-28T20:11:06.979Z,58.80
2022-07-28T20:13:34.382Z,59.10
2022-07-28T20:16:01.432Z,59.30
2022-07-28T20:18:28.459Z,59.50
2022-07-28T20:20:55.586Z,60.10
2022-07-28T20:23:22.792Z,60.90
2022-07-28T20:25:49.825Z,61.30
2022-07-28T20:28:16.887Z,61.20
2022-07-28T20:30:44.029Z,61.10
2022-07-28T20:33:11.157Z,61.40
2022-07-28T20:35:38.146Z,61.50
2022-07-28T20:38:07.443Z,62.40
2022-07-28T20:40:37.399Z,63.10
2022-07-28T20:43:04.392Z,63.50
2022-07-28T20:45:31.905Z,63.80
2022-07-28T20:47:58.962Z,64.30
2022-07-28T20:50:26.142Z,64.10
2022-07-28T20:52:53.226Z,64.20
2022-07-28T20:55:20.805Z,64.10
2022-07-28T20:57:53.439Z,64.30
2022-07-28T21:00:21.024Z,63.90
2022-07-28T21:02:48.215Z,63.90
2022-07-28T21:05:26.716Z,64.10
2022-07-28T21:08:06.499Z,64.20
2022-07-28T21:10:36.367Z,64.10
2022-07-28T21:13:03.579Z,64.30
2022-07-28T21:15:31.006Z,64.80
2022-07-28T21:17:59.097Z,65.40
2022-07-28T21:20:26.237Z,65.80
2022-07-28T21:22:53.300Z,66.00
2022-07-28T21:25:20.607Z,65.90
2022-07-28T21:28:13.810Z,66.10
2022-07-28T21:30:40.819Z,66.60
2022-07-28T21:33:07.926Z,67.00
2022-07-28T21:35:34.969Z,67.80
2022-07-28T21:38:01.980Z,68.20
2022-07-28T21:40:29.148Z,68.30
2022-07-28T21:42:56.259Z,68.60
2022-07-28T21:45:23.469Z,68.80
2022-07-28T21:47:50.662Z,68.90
2022-07-28T21:50:17.764Z,68.70
2022-07-28T21:52:44.759Z,68.50
2022-07-28T21:55:12.212Z,68.50
2022-07-28T21:57:39.249Z,68.60
2022-07-28T22:00:09.671Z,68.10
2022-07-28T22:02:36.863Z,68.20
2022-07-28T22:05:05.163Z,68.30
2022-07-28T22:07:32.389Z,68.40
2022-07-28T22:09:59.551Z,68.70
2022-07-28T22:12:26.652Z,69.20
2022-07-28T22:14:53.729Z,68.90
2022-07-28T22:17:20.790Z,70.00
2022-07-28T22:19:47.847Z,69.90
2022-07-28T22:22:18.342Z,68.90
2022-07-28T22:24:46.173Z,69.10
2022-07-28T22:27:13.225Z,69.00
2022-07-28T22:29:40.359Z,68.70
2022-07-28T22:32:13.229Z,68.80
2022-07-28T22:34:40.339Z,69.00
2022-07-28T22:37:12.890Z,68.80
2022-07-28T22:39:40.599Z,69.00
2022-07-28T22:42:07.680Z,69.30
2022-07-28T22:44:34.665Z,69.50
2022-07-28T22:47:01.781Z,69.80
2022-07-28T22:49:28.895Z,70.10
2022-07-28T22:51:55.954Z,70.30
2022-07-28T22:54:22.960Z,70.00
2022-07-28T22:56:50.455Z,70.20
2022-07-28T22:59:17.820Z,70.50
2022-07-28T23:01:45.364Z,70.90
2022-07-28T23:04:13.502Z,71.30
2022-07-28T23:06:41.910Z,71.00
2022-07-28T23:09:09.054Z,71.20
2022-07-28T23:11:36.081Z,71.50
2022-07-28T23:14:03.161Z,71.80
2022-07-28T23:16:30.403Z,71.70
2022-07-28T23:18:57.660Z,71.70
2022-07-28T23:21:24.766Z,72.00
2022-07-28T23:23:51.846Z,72.00
2022-07-28T23:26:18.884Z,72.10
2022-07-28T23:28:45.961Z,72.20
2022-07-28T23:31:13.102Z,72.30
2022-07-28T23:33:56.275Z,72.60
2022-07-28T23:36:26.468Z,73.10
2022-07-28T23:38:59.082Z,73.50
2022-07-28T23:41:27.028Z,73.80
2022-07-28T23:43:54.339Z,74.00
2022-07-28T23:46:21.792Z,74.30
2022-07-28T23:48:50.004Z,74.30
2022-07-28T23:51:17.129Z,74.30
2022-07-28T23:53:44.346Z,74.20
2022-07-28T23:56:11.421Z,74.80
2022-07-28T23:58:38.481Z,74.10
